Aberdeen, United Kingdom

7:00 PM BST on April 24, 2017 (GMT +0100)
Stoneywood | | Change Station

Elev 200 ft 57.19 °N, 2.18 °W | Updated 28 seconds ago

Clear
Clear
38.5 °F
Feels Like 36 °F
N
4.0
Wind Variable Wind from North
Gusts 4.9 mph

Today
High -- | Low -- °F
--% Chance of Precip.
Yesterday
High -- | Low -- °F
Precip. -- in
Pressure 29.83 in
Visibility 6.2 miles
Clouds
Windchill 36 °F
Dew Point 31 °F
Humidity 75%
Rainfall 0.18 in
Snow Depth Not available.
5:36 AM 8:38 PM
Waning Crescent, 4% visible
METAR EGPD 241750Z AUTO 34016KT 9999 NCD 03/M00 Q1010 NOSIG
Pressure 29.83 in
Visibility 6.2 miles
Clouds
Windchill 36 °F
Dew Point 31 °F
Humidity 75%
Rainfall 0.18 in
Snow Depth Not available.
5:36 AM 8:38 PM
Waning Crescent, 4% visible
METAR EGPD 241750Z AUTO 34016KT 9999 NCD 03/M00 Q1010 NOSIG

Get Severe Weather Alerts

Thanks for signing up!

Be on the lookout for a verification email in your inbox.

You'll start receiving the daily forecast at 8 AM.

×

10-Day Weather Forecast

×

Almanac

Astronomy

Apr. 24, 2017 Rise Set
Actual Time
Civil Twilight
Nautical Twilight
Astronomical Twilight
Moon
Length of Visible Light
Length of Day
Tomorrow will be .
, % of the Moon is Illuminated

Today's Extremes

Country Highs Country Lows

Community

WunderPhotos

WunderBlog® & News

Nearby

Air Quality

  Air Quality AQ Index Pollutant
Not available.

Snow Depth

Station Depth Elevation

Earthquake Activity

City Distance Mag. Time & Date
Minimum magnitude displayed is 2.5.

Coastal Water Temperatures

Place Temperature

Stations

Nearby Weather Stations

Station Location Temp. Windchill Dew Point Humidity Wind Precip. Elev Updated Type